Time;durP1;ratioP1;P1;durP2;ratioP2;P2;SDS_P1;SDS_P2;PMS_P1;PMS_P2;Temp;Humidity;BMP_temperature;BMP_pressure;BME280_temperature;BME280_humidity;BME280_pressure;Samples;Min_cycle;Max_cycle;Signal;HPM_P1;HPM_P2
2022/02/18 00:13:45;;;;;;;14.5;5.5;;;;;;;7.1;100.0;100850;;;;
2022/02/18 00:27:45;;;;;;;16.1;6.4;;;;;;;7.0;100.0;100840;;;;
2022/02/18 00:31:45;;;;;;;16.1;6.4;;;;;;;7.1;100.0;100830;;;;
2022/02/18 00:39:45;;;;;;;19.8;7.2;;;;;;;7.0;100.0;100820;;;;
2022/02/18 00:41:45;;;;;;;19.8;7.2;;;;;;;7.1;100.0;100820;;;;
2022/02/18 00:43:45;;;;;;;19.8;7.2;;;;;;;7.0;100.0;100810;;;;
2022/02/18 00:45:45;;;;;;;19.8;7.2;;;;;;;7.1;100.0;100800;;;;
2022/02/18 00:47:45;;;;;;;19.8;7.2;;;;;;;7.2;100.0;100800;;;;
2022/02/18 00:49:45;;;;;;;19.8;7.2;;;;;;;7.1;100.0;100800;;;;
2022/02/18 01:01:45;;;;;;;20.6;7.5;;;;;;;7.2;100.0;100790;;;;
2022/02/18 01:03:45;;;;;;;20.6;7.5;;;;;;;7.1;100.0;100780;;;;
2022/02/18 01:07:45;;;;;;;20.6;7.5;;;;;;;7.2;100.0;100780;;;;
2022/02/18 01:19:45;;;;;;;16.7;6.4;;;;;;;7.1;100.0;100770;;;;
2022/02/18 01:27:45;;;;;;;16.7;6.4;;;;;;;7.2;100.0;100770;;;;
2022/02/18 01:37:45;;;;;;;18.1;6.0;;;;;;;7.3;100.0;100760;;;;
2022/02/18 01:39:45;;;;;;;18.1;6.0;;;;;;;7.2;100.0;100760;;;;
2022/02/18 01:47:45;;;;;;;18.1;6.0;;;;;;;7.1;100.0;100760;;;;
2022/02/18 01:59:45;;;;;;;16.0;5.7;;;;;;;7.2;100.0;100730;;;;
2022/02/18 02:07:45;;;;;;;16.0;5.7;;;;;;;7.3;100.0;100710;;;;
2022/02/18 02:17:45;;;;;;;16.2;5.4;;;;;;;7.2;100.0;100690;;;;
2022/02/18 02:19:45;;;;;;;16.2;5.4;;;;;;;7.3;100.0;100680;;;;
2022/02/18 02:23:45;;;;;;;16.2;5.4;;;;;;;7.2;100.0;100670;;;;
2022/02/18 02:25:45;;;;;;;16.2;5.4;;;;;;;7.3;100.0;100670;;;;
2022/02/18 02:27:45;;;;;;;16.2;5.4;;;;;;;7.2;100.0;100660;;;;
2022/02/18 02:29:45;;;;;;;16.2;5.4;;;;;;;7.3;100.0;100660;;;;
2022/02/18 02:39:45;;;;;;;17.2;5.7;;;;;;;7.2;100.0;100630;;;;
2022/02/18 02:41:45;;;;;;;17.2;5.7;;;;;;;7.3;100.0;100630;;;;
2022/02/18 02:43:45;;;;;;;17.2;5.7;;;;;;;7.2;100.0;100620;;;;
2022/02/18 02:45:45;;;;;;;17.2;5.7;;;;;;;7.3;100.0;100620;;;;
2022/02/18 02:49:45;;;;;;;17.2;5.7;;;;;;;7.2;100.0;100610;;;;
2022/02/18 02:51:45;;;;;;;17.2;5.7;;;;;;;7.3;100.0;100600;;;;
2022/02/18 02:59:45;;;;;;;22.3;6.6;;;;;;;7.2;100.0;100580;;;;
2022/02/18 03:01:45;;;;;;;22.3;6.6;;;;;;;7.3;100.0;100580;;;;
2022/02/18 03:03:45;;;;;;;22.3;6.6;;;;;;;7.4;100.0;100570;;;;
2022/02/18 03:11:45;;;;;;;22.3;6.6;;;;;;;7.3;100.0;100560;;;;
2022/02/18 03:13:45;;;;;;;20.0;6.7;;;;;;;7.4;100.0;100550;;;;
2022/02/18 03:21:45;;;;;;;20.0;6.7;;;;;;;7.5;100.0;100550;;;;
2022/02/18 03:25:45;;;;;;;20.0;6.7;;;;;;;7.4;100.0;100540;;;;
2022/02/18 03:27:45;;;;;;;20.0;6.7;;;;;;;7.5;100.0;100530;;;;
2022/02/18 03:37:45;;;;;;;27.7;7.2;;;;;;;7.6;100.0;100500;;;;
2022/02/18 03:53:45;;;;;;;25.7;7.3;;;;;;;7.7;100.0;100450;;;;
2022/02/18 03:55:45;;;;;;;25.7;7.3;;;;;;;7.6;100.0;100450;;;;
2022/02/18 04:03:45;;;;;;;25.7;7.3;;;;;;;7.7;100.0;100450;;;;
2022/02/18 04:05:45;;;;;;;25.7;7.3;;;;;;;7.6;100.0;100430;;;;
2022/02/18 04:07:45;;;;;;;25.7;7.3;;;;;;;7.7;100.0;100430;;;;
2022/02/18 04:11:45;;;;;;;25.7;7.3;;;;;;;7.6;100.0;100420;;;;
2022/02/18 04:13:45;;;;;;;31.7;7.4;;;;;;;7.7;100.0;100420;;;;
2022/02/18 04:15:45;;;;;;;31.7;7.4;;;;;;;7.6;100.0;100420;;;;
2022/02/18 04:29:45;;;;;;;31.7;7.4;;;;;;;7.5;100.0;100350;;;;
2022/02/18 04:31:45;;;;;;;31.7;7.4;;;;;;;7.6;100.0;100340;;;;
2022/02/18 04:37:45;;;;;;;28.9;7.2;;;;;;;7.4;100.0;100310;;;;
2022/02/18 04:43:45;;;;;;;28.9;7.2;;;;;;;7.5;100.0;100310;;;;
2022/02/18 04:53:45;;;;;;;28.7;7.8;;;;;;;7.4;100.0;100270;;;;
2022/02/18 04:55:45;;;;;;;28.7;7.8;;;;;;;7.5;100.0;100270;;;;
2022/02/18 05:09:45;;;;;;;28.7;7.8;;;;;;;7.4;100.0;100240;;;;
2022/02/18 05:11:45;;;;;;;28.7;7.8;;;;;;;7.5;100.0;100240;;;;
2022/02/18 05:13:45;;;;;;;25.5;7.6;;;;;;;7.6;100.0;100240;;;;
2022/02/18 05:15:45;;;;;;;25.5;7.6;;;;;;;7.5;100.0;100240;;;;
2022/02/18 05:19:45;;;;;;;25.5;7.6;;;;;;;7.6;100.0;100230;;;;
2022/02/18 05:23:45;;;;;;;25.5;7.6;;;;;;;7.5;100.0;100200;;;;
2022/02/18 05:25:45;;;;;;;25.5;7.6;;;;;;;7.6;100.0;100190;;;;
2022/02/18 05:29:45;;;;;;;25.5;7.6;;;;;;;7.7;100.0;100170;;;;
2022/02/18 05:31:45;;;;;;;25.5;7.6;;;;;;;7.6;100.0;100170;;;;
2022/02/18 05:33:45;;;;;;;21.1;6.5;;;;;;;7.5;100.0;100170;;;;
2022/02/18 05:35:45;;;;;;;21.1;6.5;;;;;;;7.6;100.0;100170;;;;
2022/02/18 05:37:45;;;;;;;21.1;6.5;;;;;;;7.5;100.0;100150;;;;
2022/02/18 05:39:46;;;;;;;21.1;6.5;;;;;;;7.6;100.0;100150;;;;
2022/02/18 05:51:45;;;;;;;21.1;6.5;;;;;;;7.5;100.0;100120;;;;
2022/02/18 05:55:45;;;;;;;23.2;6.5;;;;;;;7.6;100.0;100090;;;;
2022/02/18 05:59:45;;;;;;;23.2;6.5;;;;;;;7.5;100.0;100080;;;;
2022/02/18 06:01:45;;;;;;;23.2;6.5;;;;;;;7.6;100.0;100080;;;;
2022/02/18 06:09:45;;;;;;;23.2;6.5;;;;;;;7.5;100.0;100070;;;;
2022/02/18 06:13:45;;;;;;;18.8;6.7;;;;;;;7.6;100.0;100060;;;;
2022/02/18 06:17:45;;;;;;;18.8;6.7;;;;;;;7.5;100.0;100050;;;;
2022/02/18 06:25:45;;;;;;;18.8;6.7;;;;;;;7.6;100.0;100010;;;;
2022/02/18 06:27:45;;;;;;;18.8;6.7;;;;;;;7.5;100.0;100010;;;;
2022/02/18 06:29:49;;;;;;;18.8;6.7;;;;;;;7.6;100.0;100010;;;;
2022/02/18 06:31:45;;;;;;;18.8;6.7;;;;;;;7.5;100.0;100000;;;;
2022/02/18 06:35:45;;;;;;;24.0;6.1;;;;;;;7.4;100.0;99970;;;;
2022/02/18 06:47:45;;;;;;;24.0;6.1;;;;;;;7.5;100.0;99940;;;;
2022/02/18 06:51:45;;;;;;;24.0;6.1;;;;;;;7.3;100.0;99920;;;;
2022/02/18 06:53:45;;;;;;;24.9;6.8;;;;;;;7.4;100.0;99910;;;;
2022/02/18 06:55:46;;;;;;;24.9;6.8;;;;;;;7.3;100.0;99900;;;;
2022/02/18 06:59:45;;;;;;;24.9;6.8;;;;;;;7.4;100.0;99900;;;;
2022/02/18 07:17:45;;;;;;;28.7;7.0;;;;;;;7.5;100.0;99850;;;;
2022/02/18 07:23:45;;;;;;;28.7;7.0;;;;;;;7.6;100.0;99830;;;;
2022/02/18 07:37:45;;;;;;;25.1;7.0;;;;;;;7.7;100.0;99780;;;;
2022/02/18 07:39:45;;;;;;;25.1;7.0;;;;;;;7.6;100.0;99780;;;;
2022/02/18 07:41:45;;;;;;;25.1;7.0;;;;;;;7.7;100.0;99780;;;;
2022/02/18 07:43:45;;;;;;;25.1;7.0;;;;;;;7.8;100.0;99780;;;;
2022/02/18 07:49:46;;;;;;;25.1;7.0;;;;;;;8.0;100.0;99750;;;;
2022/02/18 07:53:46;;;;;;;21.5;6.4;;;;;;;7.9;100.0;99740;;;;
2022/02/18 07:59:47;;;;;;;21.5;6.4;;;;;;;8.0;100.0;99730;;;;
2022/02/18 08:01:45;;;;;;;21.5;6.4;;;;;;;8.1;100.0;99720;;;;
2022/02/18 08:07:45;;;;;;;21.5;6.4;;;;;;;8.2;100.0;99710;;;;
2022/02/18 08:11:45;;;;;;;21.5;6.4;;;;;;;8.4;100.0;99700;;;;
2022/02/18 08:13:45;;;;;;;16.7;6.3;;;;;;;8.3;100.0;99700;;;;
2022/02/18 08:15:45;;;;;;;16.7;6.3;;;;;;;8.4;100.0;99700;;;;
2022/02/18 08:21:45;;;;;;;16.7;6.3;;;;;;;8.5;100.0;99670;;;;
2022/02/18 08:25:45;;;;;;;16.7;6.3;;;;;;;8.6;100.0;99670;;;;
2022/02/18 08:29:45;;;;;;;16.7;6.3;;;;;;;8.7;100.0;99650;;;;
2022/02/18 08:33:45;;;;;;;11.3;5.7;;;;;;;8.8;100.0;99640;;;;
2022/02/18 08:39:45;;;;;;;11.3;5.7;;;;;;;8.7;100.0;99630;;;;
2022/02/18 08:41:45;;;;;;;11.3;5.7;;;;;;;8.8;100.0;99630;;;;
2022/02/18 08:43:45;;;;;;;11.3;5.7;;;;;;;8.9;100.0;99620;;;;
2022/02/18 08:47:46;;;;;;;11.3;5.7;;;;;;;9.0;100.0;99610;;;;
2022/02/18 08:49:45;;;;;;;11.3;5.7;;;;;;;8.9;100.0;99600;;;;
2022/02/18 08:51:45;;;;;;;11.3;5.7;;;;;;;9.0;100.0;99600;;;;
2022/02/18 08:53:45;;;;;;;7.7;4.4;;;;;;;9.1;100.0;99590;;;;
2022/02/18 09:03:45;;;;;;;7.7;4.4;;;;;;;9.2;100.0;99580;;;;
2022/02/18 09:07:45;;;;;;;7.7;4.4;;;;;;;9.3;100.0;99550;;;;
2022/02/18 09:11:45;;;;;;;7.7;4.4;;;;;;;9.5;100.0;99550;;;;
2022/02/18 09:13:45;;;;;;;6.5;3.8;;;;;;;9.3;100.0;99540;;;;
2022/02/18 09:15:45;;;;;;;6.5;3.8;;;;;;;9.4;100.0;99530;;;;
2022/02/18 09:21:45;;;;;;;6.5;3.8;;;;;;;9.5;100.0;99520;;;;
2022/02/18 09:23:45;;;;;;;6.5;3.8;;;;;;;9.6;100.0;99510;;;;
2022/02/18 09:37:45;;;;;;;4.2;3.7;;;;;;;9.8;100.0;99490;;;;
2022/02/18 09:47:45;;;;;;;4.2;3.7;;;;;;;9.9;100.0;99490;;;;
2022/02/18 09:51:45;;;;;;;3.5;2.9;;;;;;;10.0;100.0;99480;;;;
2022/02/18 09:53:45;;;;;;;3.5;2.9;;;;;;;9.9;100.0;99480;;;;
2022/02/18 09:55:45;;;;;;;3.5;2.9;;;;;;;10.0;100.0;99470;;;;
2022/02/18 10:01:45;;;;;;;3.5;2.9;;;;;;;9.9;100.0;99460;;;;
2022/02/18 10:03:45;;;;;;;3.5;2.9;;;;;;;10.1;100.0;99440;;;;
2022/02/18 10:07:45;;;;;;;3.5;2.9;;;;;;;10.2;100.0;99430;;;;
2022/02/18 10:11:45;;;;;;;2.3;2.1;;;;;;;10.1;100.0;99420;;;;
2022/02/18 10:13:46;;;;;;;2.3;2.1;;;;;;;10.3;100.0;99410;;;;
2022/02/18 10:15:45;;;;;;;2.3;2.1;;;;;;;10.2;100.0;99410;;;;
2022/02/18 10:21:45;;;;;;;2.3;2.1;;;;;;;10.3;100.0;99410;;;;
2022/02/18 10:27:45;;;;;;;2.3;2.1;;;;;;;10.4;100.0;99390;;;;
2022/02/18 10:35:45;;;;;;;2.3;1.9;;;;;;;10.5;100.0;99340;;;;
2022/02/18 10:39:45;;;;;;;2.3;1.9;;;;;;;10.6;100.0;99330;;;;
2022/02/18 10:45:45;;;;;;;2.3;1.9;;;;;;;10.5;100.0;99320;;;;
2022/02/18 10:49:46;;;;;;;2.3;1.9;;;;;;;10.6;100.0;99310;;;;
2022/02/18 10:55:45;;;;;;;1.6;1.5;;;;;;;10.7;100.0;99270;;;;
2022/02/18 10:57:45;;;;;;;1.6;1.5;;;;;;;10.8;100.0;99270;;;;
2022/02/18 11:03:45;;;;;;;1.6;1.5;;;;;;;10.9;100.0;99250;;;;
2022/02/18 11:07:45;;;;;;;1.6;1.5;;;;;;;10.8;100.0;99240;;;;
2022/02/18 11:13:45;;;;;;;1.4;1.3;;;;;;;10.7;100.0;99230;;;;
2022/02/18 11:17:45;;;;;;;1.4;1.3;;;;;;;10.8;100.0;99230;;;;
2022/02/18 11:21:45;;;;;;;1.4;1.3;;;;;;;10.9;100.0;99220;;;;
2022/02/18 11:25:45;;;;;;;1.4;1.3;;;;;;;11.0;100.0;99200;;;;
2022/02/18 11:29:45;;;;;;;1.4;1.3;;;;;;;11.1;100.0;99190;;;;
2022/02/18 11:31:45;;;;;;;1.4;1.2;;;;;;;11.0;100.0;99200;;;;
2022/02/18 11:33:45;;;;;;;1.4;1.2;;;;;;;11.1;100.0;99200;;;;
2022/02/18 11:37:45;;;;;;;1.4;1.2;;;;;;;11.0;100.0;99170;;;;
2022/02/18 11:39:45;;;;;;;1.4;1.2;;;;;;;11.1;100.0;99160;;;;
2022/02/18 11:49:46;;;;;;;1.4;1.2;;;;;;;11.2;100.0;99130;;;;
2022/02/18 11:51:45;;;;;;;1.4;1.3;;;;;;;11.1;100.0;99130;;;;
2022/02/18 11:53:45;;;;;;;1.4;1.3;;;;;;;11.2;100.0;99110;;;;
2022/02/18 12:01:45;;;;;;;1.4;1.3;;;;;;;11.4;100.0;99080;;;;
2022/02/18 12:03:45;;;;;;;1.4;1.3;;;;;;;11.5;100.0;99080;;;;
2022/02/18 12:05:49;;;;;;;1.4;1.3;;;;;;;11.6;100.0;99060;;;;
2022/02/18 12:09:45;;;;;;;1.4;1.3;;;;;;;11.7;100.0;99060;;;;
2022/02/18 12:11:45;;;;;;;1.9;1.3;;;;;;;11.6;100.0;99060;;;;
2022/02/18 12:13:45;;;;;;;1.9;1.3;;;;;;;11.9;100.0;99060;;;;
2022/02/18 12:19:45;;;;;;;1.9;1.3;;;;;;;11.8;100.0;99040;;;;
2022/02/18 12:21:45;;;;;;;1.9;1.3;;;;;;;11.9;100.0;99030;;;;
2022/02/18 12:23:45;;;;;;;1.9;1.3;;;;;;;11.7;100.0;99020;;;;
2022/02/18 12:25:45;;;;;;;1.9;1.3;;;;;;;11.6;100.0;99010;;;;
2022/02/18 12:29:45;;;;;;;1.9;1.3;;;;;;;11.8;100.0;99000;;;;
2022/02/18 12:31:45;;;;;;;1.3;1.2;;;;;;;11.7;100.0;99000;;;;
2022/02/18 12:33:45;;;;;;;1.3;1.2;;;;;;;11.8;100.0;99000;;;;
2022/02/18 12:37:45;;;;;;;1.3;1.2;;;;;;;11.9;100.0;98990;;;;
2022/02/18 12:41:45;;;;;;;1.3;1.2;;;;;;;11.8;100.0;98990;;;;
2022/02/18 12:43:45;;;;;;;1.3;1.2;;;;;;;11.7;100.0;98980;;;;
2022/02/18 12:49:45;;;;;;;1.3;1.2;;;;;;;11.6;100.0;98970;;;;
2022/02/18 12:51:45;;;;;;;1.6;1.5;;;;;;;11.4;100.0;98960;;;;
2022/02/18 12:59:45;;;;;;;1.6;1.5;;;;;;;11.3;100.0;98950;;;;
2022/02/18 13:05:45;;;;;;;1.6;1.5;;;;;;;11.2;100.0;98970;;;;
2022/02/18 13:07:45;;;;;;;1.6;1.5;;;;;;;11.1;100.0;99010;;;;
2022/02/18 13:11:45;;;;;;;3.0;2.1;;;;;;;10.6;100.0;99030;;;;
2022/02/18 13:13:46;;;;;;;3.0;2.1;;;;;;;10.4;100.0;99010;;;;
2022/02/18 13:15:45;;;;;;;3.0;2.1;;;;;;;10.2;100.0;99030;;;;
2022/02/18 13:17:46;;;;;;;3.0;2.1;;;;;;;10.0;100.0;99030;;;;
2022/02/18 13:21:46;;;;;;;3.0;2.1;;;;;;;9.9;100.0;99000;;;;
2022/02/18 13:25:45;;;;;;;3.0;2.1;;;;;;;9.7;100.0;98990;;;;
2022/02/18 13:29:47;;;;;;;3.0;2.1;;;;;;;9.5;100.0;98990;;;;
2022/02/18 13:31:45;;;;;;;5.5;2.2;;;;;;;9.4;100.0;98970;;;;
2022/02/18 13:35:45;;;;;;;5.5;2.2;;;;;;;9.2;100.0;98960;;;;
2022/02/18 13:37:45;;;;;;;5.5;2.2;;;;;;;9.1;100.0;98950;;;;
2022/02/18 13:41:45;;;;;;;5.5;2.2;;;;;;;9.2;100.0;98940;;;;
2022/02/18 13:43:46;;;;;;;5.5;2.2;;;;;;;9.0;100.0;98940;;;;
2022/02/18 13:45:45;;;;;;;5.5;2.2;;;;;;;8.9;100.0;98910;;;;
2022/02/18 13:49:45;;;;;;;5.5;2.2;;;;;;;9.0;100.0;98900;;;;
2022/02/18 13:51:45;;;;;;;6.7;2.7;;;;;;;8.8;100.0;98900;;;;
2022/02/18 13:53:45;;;;;;;6.7;2.7;;;;;;;8.9;100.0;98900;;;;
2022/02/18 13:57:45;;;;;;;6.7;2.7;;;;;;;8.8;100.0;98890;;;;
2022/02/18 14:03:45;;;;;;;6.7;2.7;;;;;;;8.7;100.0;98880;;;;
2022/02/18 14:05:45;;;;;;;6.7;2.7;;;;;;;8.8;100.0;98870;;;;
2022/02/18 14:07:46;;;;;;;6.7;2.7;;;;;;;8.6;100.0;98870;;;;
2022/02/18 14:09:46;;;;;;;6.7;2.7;;;;;;;8.7;100.0;98880;;;;
2022/02/18 14:11:45;;;;;;;6.7;3.0;;;;;;;8.6;100.0;98880;;;;
2022/02/18 14:15:45;;;;;;;6.7;3.0;;;;;;;8.7;100.0;98870;;;;
2022/02/18 14:19:46;;;;;;;6.7;3.0;;;;;;;8.6;100.0;98880;;;;
2022/02/18 14:25:46;;;;;;;6.7;3.0;;;;;;;8.7;100.0;98860;;;;
2022/02/18 14:33:45;;;;;;;7.7;3.2;;;;;;;8.8;100.0;98850;;;;
2022/02/18 14:37:45;;;;;;;7.7;3.2;;;;;;;8.9;100.0;98830;;;;
2022/02/18 14:41:45;;;;;;;7.7;3.2;;;;;;;9.0;100.0;98860;;;;
2022/02/18 14:43:45;;;;;;;7.7;3.2;;;;;;;8.9;100.0;98840;;;;
2022/02/18 14:45:45;;;;;;;7.7;3.2;;;;;;;9.0;100.0;98840;;;;
2022/02/18 14:47:45;;;;;;;7.7;3.2;;;;;;;8.9;100.0;98840;;;;
2022/02/18 14:49:46;;;;;;;7.7;3.2;;;;;;;9.0;100.0;98840;;;;
2022/02/18 14:51:45;;;;;;;8.1;2.8;;;;;;;8.9;100.0;98840;;;;
2022/02/18 14:59:46;;;;;;;8.1;2.8;;;;;;;9.0;100.0;98840;;;;
2022/02/18 15:05:45;;;;;;;8.1;2.8;;;;;;;9.1;100.0;98830;;;;
2022/02/18 15:09:46;;;;;;;8.1;2.8;;;;;;;9.0;100.0;98810;;;;
2022/02/18 15:11:45;;;;;;;16.4;5.1;;;;;;;9.1;100.0;98810;;;;
2022/02/18 15:19:46;;;;;;;16.4;5.1;;;;;;;9.0;100.0;98780;;;;
2022/02/18 15:21:45;;;;;;;16.4;5.1;;;;;;;9.1;100.0;98810;;;;
2022/02/18 15:23:45;;;;;;;16.4;5.1;;;;;;;9.2;100.0;98780;;;;
2022/02/18 15:25:45;;;;;;;16.4;5.1;;;;;;;9.1;100.0;98790;;;;
2022/02/18 15:43:45;;;;;;;10.2;4.0;;;;;;;9.1;100.0;98790;;;;
2022/02/18 16:13:45;;;;;;;14.2;4.9;;;;;;;9.0;100.0;98840;;;;
2022/02/18 16:17:46;;;;;;;14.2;4.9;;;;;;;8.9;100.0;98840;;;;
2022/02/18 16:23:45;;;;;;;14.2;4.9;;;;;;;8.8;100.0;98870;;;;
2022/02/18 16:25:45;;;;;;;14.2;4.9;;;;;;;8.9;100.0;98880;;;;
2022/02/18 16:27:45;;;;;;;14.2;4.9;;;;;;;8.8;100.0;98860;;;;
2022/02/18 16:37:45;;;;;;;13.5;5.0;;;;;;;8.7;100.0;98890;;;;
2022/02/18 16:43:45;;;;;;;13.5;5.0;;;;;;;8.8;100.0;98930;;;;
2022/02/18 16:45:45;;;;;;;13.5;5.0;;;;;;;8.7;100.0;98920;;;;
2022/02/18 16:47:47;;;;;;;13.5;5.0;;;;;;;8.6;100.0;98950;;;;
2022/02/18 16:49:45;;;;;;;13.5;5.0;;;;;;;8.7;100.0;98930;;;;
2022/02/18 16:53:45;;;;;;;13.0;4.9;;;;;;;8.6;100.0;98950;;;;
2022/02/18 16:59:46;;;;;;;13.0;4.9;;;;;;;8.4;100.0;98990;;;;
2022/02/18 17:03:45;;;;;;;13.0;4.9;;;;;;;8.3;100.0;98970;;;;
2022/02/18 17:15:45;;;;;;;9.8;3.7;;;;;;;8.2;100.0;99030;;;;
2022/02/18 17:19:45;;;;;;;9.8;3.7;;;;;;;8.3;100.0;99050;;;;
2022/02/18 17:23:46;;;;;;;9.8;3.7;;;;;;;8.2;100.0;99060;;;;
2022/02/18 17:37:47;;;;;;;10.8;3.7;;;;;;;8.1;100.0;99070;;;;
2022/02/18 17:43:45;;;;;;;10.8;3.7;;;;;;;8.0;100.0;99170;;;;
2022/02/18 17:45:46;;;;;;;10.8;3.7;;;;;;;7.9;100.0;99130;;;;
2022/02/18 17:49:45;;;;;;;10.8;3.7;;;;;;;7.8;100.0;99160;;;;
2022/02/18 17:55:45;;;;;;;10.9;4.0;;;;;;;7.7;100.0;99180;;;;
2022/02/18 18:01:45;;;;;;;10.9;4.0;;;;;;;7.6;100.0;99240;;;;
2022/02/18 18:09:54;;;;;;;10.9;4.0;;;;;;;7.4;100.0;99290;;;;
2022/02/18 18:11:45;;;;;;;13.8;4.9;;;;;;;6.9;100.0;99270;;;;
2022/02/18 18:13:45;;;;;;;13.8;4.9;;;;;;;6.7;100.0;99280;;;;
2022/02/18 18:15:45;;;;;;;13.8;4.9;;;;;;;6.5;100.0;99320;;;;
2022/02/18 18:19:45;;;;;;;13.8;4.9;;;;;;;6.4;100.0;99320;;;;
2022/02/18 18:25:45;;;;;;;13.8;4.9;;;;;;;6.3;100.0;99360;;;;
2022/02/18 18:27:46;;;;;;;13.8;4.9;;;;;;;6.4;100.0;99380;;;;
2022/02/18 18:29:45;;;;;;;13.8;4.9;;;;;;;6.3;100.0;99360;;;;
2022/02/18 18:31:45;;;;;;;13.9;5.0;;;;;;;6.4;100.0;99370;;;;
2022/02/18 18:33:45;;;;;;;13.9;5.0;;;;;;;6.3;100.0;99370;;;;
2022/02/18 18:41:45;;;;;;;13.9;5.0;;;;;;;6.2;100.0;99390;;;;
2022/02/18 18:51:45;;;;;;;7.7;3.3;;;;;;;6.1;100.0;99410;;;;
2022/02/18 19:13:45;;;;;;;7.1;3.2;;;;;;;6.2;100.0;99500;;;;
2022/02/18 19:23:45;;;;;;;7.1;3.2;;;;;;;6.3;100.0;99540;;;;
2022/02/18 19:37:45;;;;;;;9.2;4.0;;;;;;;6.4;100.0;99560;;;;
2022/02/18 19:47:45;;;;;;;9.2;4.0;;;;;;;6.5;100.0;99600;;;;
2022/02/18 19:51:45;;;;;;;12.1;3.9;;;;;;;6.4;100.0;99580;;;;
2022/02/18 20:11:45;;;;;;;11.0;4.3;;;;;;;6.5;100.0;99620;;;;
2022/02/18 20:33:45;;;;;;;11.6;4.4;;;;;;;6.4;100.0;99650;;;;
2022/02/18 20:43:45;;;;;;;11.6;4.4;;;;;;;6.3;100.0;99680;;;;
2022/02/18 20:55:45;;;;;;;12.1;4.5;;;;;;;6.2;100.0;99690;;;;
2022/02/18 20:57:46;;;;;;;12.1;4.5;;;;;;;6.3;100.0;99690;;;;
2022/02/18 20:59:47;;;;;;;12.1;4.5;;;;;;;6.2;100.0;99690;;;;
2022/02/18 21:01:53;;;;;;;12.1;4.5;;;;;;;6.3;100.0;99700;;;;
2022/02/18 21:03:47;;;;;;;12.1;4.5;;;;;;;6.2;100.0;99700;;;;
2022/02/18 21:11:45;;;;;;;10.8;4.3;;;;;;;6.1;100.0;99710;;;;
2022/02/18 21:13:45;;;;;;;10.8;4.3;;;;;;;6.2;100.0;99730;;;;
2022/02/18 21:17:47;;;;;;;10.8;4.3;;;;;;;6.1;100.0;99740;;;;
2022/02/18 21:29:45;;;;;;;11.0;4.3;;;;;;;6.0;100.0;99750;;;;
2022/02/18 21:33:45;;;;;;;11.0;4.3;;;;;;;6.1;100.0;99760;;;;
2022/02/18 21:41:45;;;;;;;11.0;4.3;;;;;;;6.0;100.0;99770;;;;
2022/02/18 21:45:45;;;;;;;11.0;4.3;;;;;;;5.9;100.0;99790;;;;
2022/02/18 21:49:46;;;;;;;14.2;4.9;;;;;;;6.0;100.0;99800;;;;
2022/02/18 21:55:49;;;;;;;14.2;4.9;;;;;;;5.9;100.0;99790;;;;
2022/02/18 22:07:45;;;;;;;14.2;4.9;;;;;;;6.0;100.0;99820;;;;
2022/02/18 22:09:45;;;;;;;11.5;5.0;;;;;;;5.9;100.0;99830;;;;
2022/02/18 22:25:45;;;;;;;11.5;5.0;;;;;;;5.8;100.0;99880;;;;
2022/02/18 22:39:45;;;;;;;10.9;3.8;;;;;;;5.6;100.0;99920;;;;
2022/02/18 22:41:45;;;;;;;10.9;3.8;;;;;;;5.7;100.0;99930;;;;
2022/02/18 22:43:45;;;;;;;10.9;3.8;;;;;;;5.6;100.0;99910;;;;
2022/02/18 22:45:45;;;;;;;10.9;3.8;;;;;;;5.5;100.0;99940;;;;
2022/02/18 22:51:45;;;;;;;9.9;3.3;;;;;;;5.6;100.0;99950;;;;
2022/02/18 22:53:45;;;;;;;9.9;3.3;;;;;;;5.5;100.0;99950;;;;
2022/02/18 23:07:45;;;;;;;9.9;3.3;;;;;;;5.4;100.0;100000;;;;
2022/02/18 23:11:45;;;;;;;7.4;3.7;;;;;;;5.5;100.0;100000;;;;
2022/02/18 23:13:45;;;;;;;7.4;3.7;;;;;;;5.4;100.0;100010;;;;
2022/02/18 23:15:45;;;;;;;7.4;3.7;;;;;;;5.5;100.0;100020;;;;
2022/02/18 23:23:45;;;;;;;7.4;3.7;;;;;;;5.4;100.0;100030;;;;
2022/02/18 23:35:45;;;;;;;9.1;3.7;;;;;;;5.5;100.0;100050;;;;
2022/02/18 23:37:46;;;;;;;9.1;3.7;;;;;;;5.4;100.0;100060;;;;
2022/02/18 23:47:45;;;;;;;9.1;3.7;;;;;;;5.3;100.0;100090;;;;
2022/02/18 23:51:45;;;;;;;11.1;4.5;;;;;;;5.2;100.0;100100;;;;
2022/02/18 23:53:45;;;;;;;11.1;4.5;;;;;;;5.3;100.0;100090;;;;
2022/02/18 23:55:45;;;;;;;11.1;4.5;;;;;;;5.2;100.0;100110;;;;
